createdAt,value
2022-08-22T00:00:44.796Z,1000.30
2022-08-22T00:01:44.800Z,1000.30
2022-08-22T00:02:55.977Z,1000.37
2022-08-22T00:02:58.022Z,1000.28
2022-08-22T00:02:58.380Z,999.15
2022-08-22T00:03:15.795Z,1000.30
2022-08-22T00:03:45.767Z,1000.31
2022-08-22T00:04:44.777Z,1000.32
2022-08-22T00:05:44.747Z,1000.27
2022-08-22T00:06:44.718Z,1000.29
2022-08-22T00:07:44.717Z,1000.30
2022-08-22T00:08:44.717Z,1000.31
2022-08-22T00:09:44.705Z,1000.33
2022-08-22T00:10:44.710Z,1000.35
2022-08-22T00:11:44.680Z,1000.33
2022-08-22T00:12:44.648Z,1000.33
2022-08-22T00:13:44.627Z,1000.35
2022-08-22T00:14:44.628Z,1000.34
2022-08-22T00:15:44.645Z,1000.35
2022-08-22T00:16:44.599Z,1000.33
2022-08-22T00:17:44.599Z,1000.37
2022-08-22T00:18:44.557Z,1000.36
2022-08-22T00:19:44.609Z,1000.36
2022-08-22T00:20:44.550Z,1000.37
2022-08-22T00:21:44.553Z,1000.36
2022-08-22T00:22:44.516Z,1000.36
2022-08-22T00:23:44.573Z,1000.34
2022-08-22T00:24:44.629Z,1000.38
2022-08-22T00:25:44.473Z,1000.35
2022-08-22T00:26:45.593Z,1000.35
2022-08-22T00:27:54.834Z,1000.38
2022-08-22T00:28:45.480Z,1000.39
2022-08-22T00:29:44.450Z,1000.40
2022-08-22T00:30:44.408Z,1000.40
2022-08-22T00:31:44.397Z,1000.41
2022-08-22T00:32:44.401Z,1000.40
2022-08-22T00:33:44.405Z,1000.38
2022-08-22T00:34:44.406Z,1000.39
2022-08-22T00:35:45.208Z,1000.36
2022-08-22T00:36:47.635Z,1000.34
2022-08-22T00:37:44.331Z,1000.37
2022-08-22T00:38:44.302Z,1000.37
2022-08-22T00:39:44.372Z,1000.32
2022-08-22T00:40:44.281Z,1000.31
2022-08-22T00:41:44.261Z,1000.32
2022-08-22T00:42:44.250Z,1000.32
2022-08-22T00:43:44.241Z,1000.31
2022-08-22T00:44:44.247Z,1000.28
2022-08-22T00:45:44.211Z,1000.28
2022-08-22T00:46:44.191Z,1000.26
2022-08-22T00:47:44.192Z,1000.26
2022-08-22T00:48:44.167Z,1000.23
2022-08-22T00:49:44.173Z,1000.22
2022-08-22T00:50:44.140Z,1000.20
2022-08-22T00:51:44.131Z,1000.20
2022-08-22T00:52:44.153Z,1000.18
2022-08-22T00:53:44.102Z,1000.18
2022-08-22T00:54:44.100Z,1000.17
2022-08-22T00:55:44.073Z,1000.17
2022-08-22T00:56:46.011Z,1000.18
2022-08-22T00:57:44.052Z,1000.14
2022-08-22T00:58:44.054Z,1000.13
2022-08-22T00:59:44.034Z,1000.18
2022-08-22T01:00:44.003Z,1000.14
2022-08-22T01:01:44.015Z,1000.15
2022-08-22T01:02:43.971Z,1000.14
2022-08-22T01:03:43.993Z,1000.14
2022-08-22T01:04:43.944Z,1000.13
2022-08-22T01:05:43.947Z,1000.15
2022-08-22T01:06:43.953Z,1000.17
2022-08-22T01:07:43.921Z,1000.15
2022-08-22T01:08:43.902Z,1000.14
2022-08-22T01:09:45.638Z,1000.11
2022-08-22T01:10:43.862Z,1000.13
2022-08-22T01:11:43.853Z,1000.13
2022-08-22T01:12:43.841Z,1000.16
2022-08-22T01:13:43.823Z,1000.15
2022-08-22T01:14:43.844Z,1000.14
2022-08-22T01:15:43.787Z,1000.10
2022-08-22T01:16:43.794Z,1000.11
2022-08-22T01:17:43.774Z,1000.13
2022-08-22T01:18:43.764Z,1000.08
2022-08-22T01:19:43.773Z,1000.10
2022-08-22T01:20:43.734Z,1000.10
2022-08-22T01:21:43.714Z,1000.14
2022-08-22T01:22:43.716Z,1000.07
2022-08-22T01:23:43.708Z,1000.11
2022-08-22T01:24:43.684Z,1000.05
2022-08-22T01:25:43.662Z,1000.10
2022-08-22T01:26:43.991Z,1000.09
2022-08-22T01:27:43.632Z,1000.08
2022-08-22T01:28:43.635Z,1000.08
2022-08-22T01:29:43.635Z,1000.11
2022-08-22T01:30:43.603Z,1000.09
2022-08-22T01:31:43.596Z,1000.10
2022-08-22T01:32:43.585Z,1000.12
2022-08-22T01:33:43.570Z,1000.13
2022-08-22T01:34:43.566Z,1000.11
2022-08-22T01:35:43.526Z,1000.11
2022-08-22T01:36:43.516Z,1000.09
2022-08-22T01:37:43.911Z,1000.11
2022-08-22T01:38:43.504Z,1000.08
2022-08-22T01:39:43.523Z,1000.08
2022-08-22T01:40:53.500Z,1000.07
2022-08-22T01:41:44.477Z,1000.07
2022-08-22T01:42:43.453Z,1000.05
2022-08-22T01:43:51.344Z,1000.04
2022-08-22T01:44:44.491Z,1000.03
2022-08-22T01:45:43.407Z,1000.03
2022-08-22T01:46:43.387Z,1000.02
2022-08-22T01:47:43.384Z,999.97
2022-08-22T01:48:43.367Z,1000.01
2022-08-22T01:49:43.386Z,999.98
2022-08-22T01:50:43.363Z,999.98
2022-08-22T01:51:43.318Z,999.96
2022-08-22T01:52:43.298Z,999.93
2022-08-22T01:53:43.297Z,999.93
2022-08-22T01:54:43.297Z,999.92
2022-08-22T01:55:43.260Z,999.91
2022-08-22T01:56:43.258Z,999.91
2022-08-22T01:57:43.239Z,999.90
2022-08-22T01:58:43.230Z,999.93
2022-08-22T01:59:43.250Z,999.92
2022-08-22T02:00:43.250Z,999.94
2022-08-22T02:01:43.199Z,999.93
2022-08-22T02:02:43.178Z,999.95
2022-08-22T02:03:43.157Z,999.97
2022-08-22T02:04:43.170Z,999.96
2022-08-22T02:05:43.151Z,999.98
2022-08-22T02:06:43.129Z,1000.00
2022-08-22T02:07:43.111Z,1000.00
2022-08-22T02:08:43.099Z,1000.02
2022-08-22T02:09:43.108Z,999.98
2022-08-22T02:10:43.071Z,1000.02
2022-08-22T02:11:43.060Z,999.98
2022-08-22T02:12:43.057Z,999.97
2022-08-22T02:13:43.029Z,999.99
2022-08-22T02:14:43.046Z,999.99
2022-08-22T02:15:43.908Z,1000.04
2022-08-22T02:16:43.007Z,1000.05
2022-08-22T02:17:42.981Z,1000.03
2022-08-22T02:18:43.001Z,1000.02
2022-08-22T02:19:42.979Z,1000.05
2022-08-22T02:20:42.941Z,1000.05
2022-08-22T02:21:42.931Z,1000.05
2022-08-22T02:22:44.556Z,1000.04
2022-08-22T02:23:42.911Z,1000.05
2022-08-22T02:24:42.911Z,1000.07
2022-08-22T02:25:42.941Z,1000.01
2022-08-22T02:26:42.861Z,1000.09
2022-08-22T02:27:42.851Z,1000.15
2022-08-22T02:28:56.578Z,1000.05
2022-08-22T02:29:43.846Z,1000.05
2022-08-22T02:30:42.811Z,1000.11
2022-08-22T02:31:42.802Z,1000.06
2022-08-22T02:32:42.791Z,1000.02
2022-08-22T02:33:42.781Z,1000.03
2022-08-22T02:34:42.782Z,999.98
2022-08-22T02:35:42.754Z,999.99
2022-08-22T02:36:42.732Z,1000.02
2022-08-22T02:37:42.711Z,999.98
2022-08-22T02:38:42.720Z,999.99
2022-08-22T02:39:42.808Z,1000.00
2022-08-22T02:40:42.690Z,1000.03
2022-08-22T02:41:42.669Z,999.99
2022-08-22T02:42:42.653Z,999.99
2022-08-22T02:43:42.643Z,1000.00
2022-08-22T02:44:42.664Z,1000.00
2022-08-22T02:45:49.796Z,1000.01
2022-08-22T02:46:42.608Z,1000.02
2022-08-22T02:47:42.580Z,1000.02
2022-08-22T02:48:42.581Z,999.97
2022-08-22T02:49:43.762Z,1000.00
2022-08-22T02:50:42.601Z,999.97
2022-08-22T02:51:42.531Z,999.99
2022-08-22T02:52:42.521Z,1000.01
2022-08-22T02:53:42.501Z,999.98
2022-08-22T02:54:42.529Z,1000.04
2022-08-22T02:55:42.482Z,1000.00
2022-08-22T02:56:42.478Z,1000.04
2022-08-22T02:57:42.461Z,1000.00
2022-08-22T02:58:42.458Z,1000.01
2022-08-22T02:59:42.472Z,1000.01
2022-08-22T03:00:42.490Z,999.99
2022-08-22T03:01:42.411Z,999.97
2022-08-22T03:02:42.403Z,999.98
2022-08-22T03:03:42.404Z,999.97
2022-08-22T03:04:42.381Z,999.97
2022-08-22T03:05:42.342Z,999.98
2022-08-22T03:06:42.341Z,999.96
2022-08-22T03:07:42.331Z,999.95
2022-08-22T03:08:47.504Z,999.97
2022-08-22T03:09:43.333Z,999.93
2022-08-22T03:10:42.290Z,999.92
2022-08-22T03:11:42.273Z,999.95
2022-08-22T03:12:42.278Z,999.93
2022-08-22T03:13:42.271Z,999.94
2022-08-22T03:14:42.233Z,999.91
2022-08-22T03:15:43.416Z,999.93
2022-08-22T03:16:43.223Z,999.92
2022-08-22T03:17:42.193Z,999.97
2022-08-22T03:18:42.170Z,999.96
2022-08-22T03:19:42.161Z,999.94
2022-08-22T03:20:42.158Z,999.92
2022-08-22T03:21:42.139Z,1000.03
2022-08-22T03:22:42.122Z,999.94
2022-08-22T03:23:42.106Z,999.95
2022-08-22T03:24:42.104Z,999.92
2022-08-22T03:25:42.103Z,999.94
2022-08-22T03:26:42.074Z,999.95
2022-08-22T03:27:42.081Z,999.96
2022-08-22T03:28:59.602Z,999.92
2022-08-22T03:29:43.042Z,999.98
2022-08-22T03:30:42.040Z,999.94
2022-08-22T03:31:42.022Z,999.97
2022-08-22T03:32:41.995Z,999.94
2022-08-22T03:33:41.985Z,999.96
2022-08-22T03:34:41.977Z,999.94
2022-08-22T03:35:41.990Z,999.95
2022-08-22T03:36:41.946Z,999.93
2022-08-22T03:37:41.945Z,999.96
2022-08-22T03:38:41.918Z,999.92
2022-08-22T03:39:41.957Z,999.89
2022-08-22T03:40:41.915Z,999.88
2022-08-22T03:41:41.885Z,999.88
2022-08-22T03:42:41.868Z,999.85
2022-08-22T03:43:41.856Z,999.86
2022-08-22T03:44:41.826Z,999.86
2022-08-22T03:45:41.844Z,999.82
2022-08-22T03:46:41.796Z,999.82
2022-08-22T03:47:41.798Z,999.83
2022-08-22T03:48:41.797Z,999.81
2022-08-22T03:49:41.783Z,999.81
2022-08-22T03:50:41.775Z,999.80
2022-08-22T03:51:41.745Z,999.77
2022-08-22T03:52:41.726Z,999.80
2022-08-22T03:53:41.727Z,999.82
2022-08-22T03:54:41.696Z,999.79
2022-08-22T03:55:41.714Z,999.80
2022-08-22T03:56:41.676Z,999.82
2022-08-22T03:57:41.657Z,999.84
2022-08-22T03:58:41.667Z,999.82
2022-08-22T03:59:42.715Z,999.78
2022-08-22T04:00:41.672Z,999.80
2022-08-22T04:01:41.617Z,999.83
2022-08-22T04:02:42.860Z,999.82
2022-08-22T04:03:41.587Z,999.82
2022-08-22T04:04:41.567Z,999.86
2022-08-22T04:05:41.586Z,999.87
2022-08-22T04:06:41.538Z,999.88
2022-08-22T04:07:41.893Z,999.85
2022-08-22T04:08:44.840Z,999.90
2022-08-22T04:09:41.516Z,999.89
2022-08-22T04:10:41.507Z,999.87
2022-08-22T04:11:41.477Z,999.88
2022-08-22T04:12:41.466Z,999.88
2022-08-22T04:13:41.470Z,999.92
2022-08-22T04:14:41.436Z,999.92
2022-08-22T04:15:41.456Z,999.92
2022-08-22T04:16:41.408Z,999.93
2022-08-22T04:17:41.409Z,999.94
2022-08-22T04:18:41.393Z,999.93
2022-08-22T04:19:41.392Z,999.92
2022-08-22T04:20:41.396Z,999.90
2022-08-22T04:21:41.348Z,999.97
2022-08-22T04:22:41.330Z,999.97
2022-08-22T04:23:41.318Z,999.97
2022-08-22T04:24:41.289Z,999.94
2022-08-22T04:25:41.310Z,999.95
2022-08-22T04:26:41.282Z,999.94
2022-08-22T04:27:41.260Z,999.93
2022-08-22T04:28:41.325Z,999.95
2022-08-22T04:29:41.250Z,999.97
2022-08-22T04:30:41.250Z,999.95
2022-08-22T04:31:41.217Z,999.95
2022-08-22T04:32:41.202Z,999.95
2022-08-22T04:33:41.190Z,999.97
2022-08-22T04:34:41.172Z,999.97
2022-08-22T04:35:41.148Z,999.96
2022-08-22T04:36:41.118Z,999.95
2022-08-22T04:37:41.130Z,999.94
2022-08-22T04:38:41.108Z,999.94
2022-08-22T04:39:41.142Z,999.89
2022-08-22T04:40:41.158Z,999.90
2022-08-22T04:41:41.098Z,999.95
2022-08-22T04:42:41.061Z,999.95
2022-08-22T04:43:41.063Z,999.95
2022-08-22T04:44:41.067Z,999.95
2022-08-22T04:45:41.029Z,999.96
2022-08-22T04:46:41.031Z,999.95
2022-08-22T04:47:40.999Z,999.93
2022-08-22T04:48:40.990Z,999.95
2022-08-22T04:49:41.012Z,999.96
2022-08-22T04:50:43.143Z,999.96
2022-08-22T04:51:40.981Z,1000.01
2022-08-22T04:52:40.942Z,999.96
2022-08-22T04:53:40.927Z,1000.00
2022-08-22T04:54:40.902Z,999.99
2022-08-22T04:55:40.913Z,999.97
2022-08-22T04:56:40.902Z,1000.00
2022-08-22T04:57:40.883Z,1000.00
2022-08-22T04:58:40.851Z,1000.01
2022-08-22T04:59:40.843Z,1000.04
2022-08-22T05:00:40.837Z,1000.02
2022-08-22T05:01:40.878Z,1000.04
2022-08-22T05:02:40.802Z,1000.06
2022-08-22T05:03:44.742Z,1000.04
2022-08-22T05:04:40.770Z,1000.04
2022-08-22T05:05:40.762Z,1000.00
2022-08-22T05:06:40.773Z,1000.05
2022-08-22T05:07:40.734Z,1000.01
2022-08-22T05:08:40.722Z,1000.02
2022-08-22T05:09:40.730Z,1000.00
2022-08-22T05:10:40.692Z,999.97
2022-08-22T05:11:40.703Z,1000.00
2022-08-22T05:12:40.673Z,1000.00
2022-08-22T05:13:40.658Z,999.99
2022-08-22T05:14:40.673Z,999.98
2022-08-22T05:15:40.633Z,999.97
2022-08-22T05:16:40.635Z,1000.04
2022-08-22T05:17:40.603Z,1000.04
2022-08-22T05:18:40.594Z,1000.04
2022-08-22T05:19:40.598Z,1000.03
2022-08-22T05:20:40.563Z,1000.04
2022-08-22T05:21:40.574Z,1000.02
2022-08-22T05:22:40.533Z,1000.03
2022-08-22T05:23:40.525Z,1000.03
2022-08-22T05:24:40.505Z,1000.01
2022-08-22T05:25:40.503Z,1000.00
2022-08-22T05:26:40.484Z,1000.02
2022-08-22T05:27:40.487Z,1000.02
2022-08-22T05:28:40.464Z,1000.01
2022-08-22T05:29:40.445Z,1000.01
2022-08-22T05:30:40.437Z,1000.01
2022-08-22T05:31:40.436Z,1000.00
2022-08-22T05:32:40.426Z,1000.01
2022-08-22T05:33:40.395Z,1000.02
2022-08-22T05:34:40.377Z,1000.02
2022-08-22T05:35:40.355Z,1000.01
2022-08-22T05:36:40.374Z,1000.02
2022-08-22T05:37:40.336Z,1000.02
2022-08-22T05:38:40.327Z,1000.07
2022-08-22T05:39:40.363Z,1000.06
2022-08-22T05:40:40.284Z,1000.07
2022-08-22T05:41:40.296Z,1000.08
2022-08-22T05:42:40.256Z,1000.09
2022-08-22T05:43:40.245Z,1000.11
2022-08-22T05:44:40.249Z,1000.14
2022-08-22T05:45:40.225Z,1000.15
2022-08-22T05:46:40.246Z,1000.16
2022-08-22T05:47:40.176Z,1000.14
2022-08-22T05:48:40.183Z,1000.20
2022-08-22T05:49:40.178Z,1000.18
2022-08-22T05:50:40.177Z,1000.21
2022-08-22T05:51:40.156Z,1000.21
2022-08-22T05:52:40.149Z,1000.20
2022-08-22T05:53:40.124Z,1000.20
2022-08-22T05:54:40.107Z,1000.21
2022-08-22T05:55:40.096Z,1000.18
2022-08-22T05:56:40.079Z,1000.22
2022-08-22T05:57:40.094Z,1000.18
2022-08-22T05:58:40.058Z,1000.15
2022-08-22T05:59:40.036Z,1000.18
2022-08-22T06:00:40.026Z,1000.19
2022-08-22T06:01:40.104Z,1000.17
2022-08-22T06:02:40.016Z,1000.22
2022-08-22T06:03:39.988Z,1000.20
2022-08-22T06:04:39.968Z,1000.18
2022-08-22T06:05:39.977Z,1000.18
2022-08-22T06:06:39.956Z,1000.18
2022-08-22T06:07:39.928Z,1000.17
2022-08-22T06:08:39.917Z,1000.15
2022-08-22T06:09:39.907Z,1000.19
2022-08-22T06:10:39.887Z,1000.15
2022-08-22T06:11:39.908Z,1000.15
2022-08-22T06:12:39.867Z,1000.13
2022-08-22T06:13:41.301Z,1000.11
2022-08-22T06:14:39.903Z,1000.15
2022-08-22T06:15:39.838Z,1000.18
2022-08-22T06:16:39.817Z,1000.16
2022-08-22T06:17:40.818Z,1000.14
2022-08-22T06:18:39.793Z,1000.19
2022-08-22T06:19:39.837Z,1000.20
2022-08-22T06:20:39.748Z,1000.23
2022-08-22T06:21:39.793Z,1000.23
2022-08-22T06:22:39.755Z,1000.24
2022-08-22T06:23:39.722Z,1000.24
2022-08-22T06:24:39.710Z,1000.28
2022-08-22T06:25:39.701Z,1000.28
2022-08-22T06:26:39.688Z,1000.29
2022-08-22T06:27:39.692Z,1000.30
2022-08-22T06:28:54.689Z,1000.30
2022-08-22T06:29:40.668Z,1000.30
2022-08-22T06:30:39.652Z,1000.27
2022-08-22T06:31:39.640Z,1000.26
2022-08-22T06:32:59.523Z,1000.27
2022-08-22T06:33:45.452Z,1000.26
2022-08-22T06:34:40.568Z,1000.26
2022-08-22T06:35:39.584Z,1000.29
2022-08-22T06:36:39.652Z,1000.28
2022-08-22T06:37:39.551Z,1000.26
2022-08-22T06:38:39.601Z,1000.25
2022-08-22T06:39:39.537Z,1000.24
2022-08-22T06:40:39.502Z,1000.24
2022-08-22T06:41:39.512Z,1000.21
2022-08-22T06:42:39.481Z,1000.20
2022-08-22T06:43:39.461Z,1000.20
2022-08-22T06:44:39.460Z,1000.23
2022-08-22T06:45:39.435Z,1000.20
2022-08-22T06:46:39.442Z,1000.25
2022-08-22T06:47:39.449Z,1000.22
2022-08-22T06:48:39.393Z,1000.23
2022-08-22T06:49:39.660Z,1000.26
2022-08-22T06:50:39.364Z,1000.26
2022-08-22T06:51:39.372Z,1000.28
2022-08-22T06:52:39.343Z,1000.26
2022-08-22T06:53:45.914Z,1000.29
2022-08-22T06:54:40.305Z,1000.25
2022-08-22T06:55:39.323Z,1000.29
2022-08-22T06:56:39.293Z,1000.32
2022-08-22T06:57:39.293Z,1000.29
2022-08-22T06:58:39.264Z,1000.30
2022-08-22T06:59:39.329Z,1000.33
2022-08-22T07:00:39.233Z,1000.32
2022-08-22T07:01:39.280Z,1000.37
2022-08-22T07:02:39.235Z,1000.37
2022-08-22T07:03:39.194Z,1000.36
2022-08-22T07:04:39.194Z,1000.38
2022-08-22T07:05:39.174Z,1000.38
2022-08-22T07:06:39.176Z,1000.38
2022-08-22T07:07:39.155Z,1000.39
2022-08-22T07:08:39.367Z,1000.41
2022-08-22T07:09:39.126Z,1000.39
2022-08-22T07:10:39.109Z,1000.35
2022-08-22T07:11:39.124Z,1000.35
2022-08-22T07:12:39.126Z,1000.36
2022-08-22T07:13:39.073Z,1000.31
2022-08-22T07:14:39.087Z,1000.32
2022-08-22T07:15:39.040Z,1000.35
2022-08-22T07:16:39.056Z,1000.35
2022-08-22T07:17:40.712Z,1000.34
2022-08-22T07:18:38.997Z,1000.39
2022-08-22T07:19:38.995Z,1000.36
2022-08-22T07:20:38.965Z,1000.36
2022-08-22T07:21:38.954Z,1000.40
2022-08-22T07:22:38.947Z,1000.39
2022-08-22T07:23:38.915Z,1000.37
2022-08-22T07:24:38.908Z,1000.37
2022-08-22T07:25:38.906Z,1000.38
2022-08-22T07:26:38.877Z,1000.39
2022-08-22T07:27:38.898Z,1000.40
2022-08-22T07:28:50.832Z,1000.42
2022-08-22T07:29:39.838Z,1000.36
2022-08-22T07:30:38.828Z,1000.35
2022-08-22T07:31:38.824Z,1000.34
2022-08-22T07:32:38.818Z,1000.32
2022-08-22T07:33:38.808Z,1000.34
2022-08-22T07:34:38.769Z,1000.31
2022-08-22T07:35:38.768Z,1000.31
2022-08-22T07:36:38.748Z,1000.33
2022-08-22T07:37:38.769Z,1000.28
2022-08-22T07:38:38.719Z,1000.28
2022-08-22T07:39:38.793Z,1000.29
2022-08-22T07:40:38.692Z,1000.30
2022-08-22T07:41:38.679Z,1000.29
2022-08-22T07:42:38.711Z,1000.28
2022-08-22T07:43:38.681Z,1000.30
2022-08-22T07:44:38.650Z,1000.31
2022-08-22T07:45:38.629Z,1000.30
2022-08-22T07:46:38.620Z,1000.30
2022-08-22T07:47:38.619Z,1000.33
2022-08-22T07:48:59.357Z,1000.36
2022-08-22T07:49:39.573Z,1000.34
2022-08-22T07:50:39.560Z,1000.31
2022-08-22T07:51:38.550Z,1000.37
2022-08-22T07:52:38.558Z,1000.29
2022-08-22T07:53:38.520Z,1000.28
2022-08-22T07:54:38.521Z,1000.25
2022-08-22T07:55:42.230Z,1000.24
2022-08-22T07:56:39.501Z,1000.28
2022-08-22T07:57:38.504Z,1000.28
2022-08-22T07:58:38.451Z,1000.29
2022-08-22T07:59:38.430Z,1000.28
2022-08-22T08:00:38.441Z,1000.26
2022-08-22T08:01:38.465Z,1000.25
2022-08-22T08:02:38.433Z,1000.27
2022-08-22T08:03:38.370Z,1000.26
2022-08-22T08:04:40.571Z,1000.26
2022-08-22T08:05:38.440Z,1000.27
2022-08-22T08:06:38.352Z,1000.28
2022-08-22T08:07:38.339Z,1000.29
2022-08-22T08:08:38.320Z,1000.32
2022-08-22T08:09:38.301Z,1000.31
2022-08-22T08:10:38.295Z,1000.33
2022-08-22T08:11:38.271Z,1000.30
2022-08-22T08:12:38.287Z,1000.29
2022-08-22T08:13:38.241Z,1000.27
2022-08-22T08:14:38.238Z,1000.27
2022-08-22T08:15:38.222Z,1000.24
2022-08-22T08:16:38.232Z,1000.25
2022-08-22T08:17:38.216Z,1000.27
2022-08-22T08:18:38.191Z,1000.24
2022-08-22T08:19:38.171Z,1000.28
2022-08-22T08:20:38.153Z,1000.29
2022-08-22T08:21:38.143Z,1000.30
2022-08-22T08:22:38.153Z,1000.33
2022-08-22T08:23:39.678Z,1000.31
2022-08-22T08:24:40.327Z,1000.32
2022-08-22T08:25:38.093Z,1000.31
2022-08-22T08:26:38.085Z,1000.26
2022-08-22T08:27:38.075Z,1000.28
2022-08-22T08:28:38.071Z,1000.28
2022-08-22T08:29:38.035Z,1000.27
2022-08-22T08:30:38.034Z,1000.23
2022-08-22T08:31:38.018Z,1000.25
2022-08-22T08:32:39.026Z,1000.25
2022-08-22T08:33:37.986Z,1000.27
2022-08-22T08:34:37.985Z,1000.24
2022-08-22T08:35:52.616Z,1000.28
2022-08-22T08:36:38.964Z,1000.29
2022-08-22T08:37:37.946Z,1000.30
2022-08-22T08:38:37.955Z,1000.29
2022-08-22T08:39:37.974Z,1000.28
2022-08-22T08:40:37.906Z,1000.33
2022-08-22T08:41:37.887Z,1000.30
2022-08-22T08:42:37.898Z,1000.26
2022-08-22T08:43:37.865Z,1000.22
2022-08-22T08:44:37.848Z,1000.20
2022-08-22T08:45:37.829Z,1000.19
2022-08-22T08:46:38.545Z,1000.22
2022-08-22T08:47:37.819Z,1000.20
2022-08-22T08:48:37.810Z,1000.22
2022-08-22T08:49:39.646Z,1000.18
2022-08-22T08:50:38.777Z,1000.19
2022-08-22T08:51:37.767Z,1000.20
2022-08-22T08:52:37.799Z,1000.20
2022-08-22T08:53:37.735Z,1000.20
2022-08-22T08:54:37.718Z,1000.19
2022-08-22T08:55:37.717Z,1000.19
2022-08-22T08:56:37.695Z,1000.16
2022-08-22T08:57:37.668Z,1000.14
2022-08-22T08:58:37.877Z,1000.19
2022-08-22T08:59:44.435Z,1000.17
2022-08-22T09:00:38.642Z,1000.16
2022-08-22T09:01:37.657Z,1000.13
2022-08-22T09:02:38.534Z,1000.15
2022-08-22T09:03:37.591Z,1000.13
2022-08-22T09:04:37.587Z,1000.10
2022-08-22T09:05:37.571Z,1000.11
2022-08-22T09:06:37.552Z,1000.11
2022-08-22T09:07:38.538Z,1000.13
2022-08-22T09:08:37.508Z,1000.09
2022-08-22T09:09:37.488Z,1000.03
2022-08-22T09:10:37.497Z,999.99
2022-08-22T09:11:37.508Z,999.92
2022-08-22T09:12:37.477Z,999.96
2022-08-22T09:13:40.924Z,999.95
2022-08-22T09:14:37.474Z,999.92
2022-08-22T09:15:37.492Z,999.91
2022-08-22T09:16:37.492Z,999.92
2022-08-22T09:17:38.409Z,999.91
2022-08-22T09:18:37.400Z,999.94
2022-08-22T09:19:37.360Z,999.95
2022-08-22T09:20:37.367Z,999.91
2022-08-22T09:21:37.339Z,999.89
2022-08-22T09:22:50.548Z,999.87
2022-08-22T09:23:38.330Z,999.86
2022-08-22T09:24:37.300Z,999.85
2022-08-22T09:25:39.913Z,999.83
2022-08-22T09:26:37.292Z,999.82
2022-08-22T09:27:37.293Z,999.77
2022-08-22T09:28:37.260Z,999.83
2022-08-22T09:29:54.882Z,999.78
2022-08-22T09:30:38.241Z,999.79
2022-08-22T09:31:47.928Z,999.76
2022-08-22T09:32:38.229Z,999.81
2022-08-22T09:33:37.201Z,999.81
2022-08-22T09:34:37.193Z,999.78
2022-08-22T09:35:37.161Z,999.76
2022-08-22T09:36:37.151Z,999.73
2022-08-22T09:37:37.160Z,999.75
2022-08-22T09:38:37.123Z,999.72
2022-08-22T09:39:37.172Z,999.71
2022-08-22T09:40:37.119Z,999.68
2022-08-22T09:41:37.081Z,999.70
2022-08-22T09:42:37.083Z,999.69
2022-08-22T09:43:37.539Z,999.69
2022-08-22T09:44:39.403Z,999.66
2022-08-22T09:45:37.005Z,999.61
2022-08-22T09:46:37.206Z,999.61
2022-08-22T09:47:39.255Z,999.57
2022-08-22T09:48:36.993Z,999.59
2022-08-22T09:51:31.691Z,999.53
2022-08-22T09:52:34.081Z,999.53
2022-08-22T09:53:15.514Z,999.52
2022-08-22T09:54:14.436Z,999.51
2022-08-22T09:55:16.170Z,999.49
2022-08-22T09:56:15.730Z,999.51
2022-08-22T09:57:14.438Z,999.47
2022-08-22T09:58:14.397Z,999.46
2022-08-22T09:59:14.821Z,999.45
2022-08-22T10:00:14.348Z,999.45
2022-08-22T10:01:14.366Z,999.45
2022-08-22T10:02:15.773Z,999.43
2022-08-22T10:03:14.328Z,999.44
2022-08-22T10:04:14.307Z,999.41
2022-08-22T10:05:35.167Z,999.39
2022-08-22T10:06:15.267Z,999.43
2022-08-22T10:07:14.279Z,999.39
2022-08-22T10:08:14.247Z,999.40
2022-08-22T10:09:15.245Z,999.35
2022-08-22T10:10:14.218Z,999.31
2022-08-22T10:11:14.208Z,999.35
2022-08-22T10:12:14.217Z,999.36
2022-08-22T10:13:14.186Z,999.31
2022-08-22T10:14:14.172Z,999.30
2022-08-22T10:15:15.160Z,999.30
2022-08-22T10:16:14.140Z,999.32
2022-08-22T10:17:14.151Z,999.27
2022-08-22T10:18:15.139Z,999.25
2022-08-22T10:19:14.100Z,999.23
2022-08-22T10:20:14.091Z,999.25
2022-08-22T10:21:14.089Z,999.23
2022-08-22T10:22:14.061Z,999.25
2022-08-22T10:23:14.071Z,999.23
2022-08-22T10:24:14.041Z,999.25
2022-08-22T10:25:15.031Z,999.15
2022-08-22T10:26:22.603Z,999.13
2022-08-22T10:27:15.016Z,999.10
2022-08-22T10:28:14.010Z,999.08
2022-08-22T10:29:13.972Z,999.05
2022-08-22T10:30:13.953Z,999.05
2022-08-22T10:31:13.950Z,999.07
2022-08-22T10:32:14.722Z,999.04
2022-08-22T10:33:13.933Z,999.01
2022-08-22T10:34:13.914Z,998.97
2022-08-22T10:35:13.897Z,998.99
2022-08-22T10:36:13.873Z,998.94
2022-08-22T10:37:13.873Z,998.97
2022-08-22T10:38:13.865Z,999.00
2022-08-22T10:39:13.845Z,998.94
2022-08-22T10:40:13.908Z,998.96
2022-08-22T10:41:13.815Z,998.95
2022-08-22T10:42:13.796Z,998.98
2022-08-22T10:43:13.821Z,998.98
2022-08-22T10:44:13.775Z,998.97
2022-08-22T10:45:13.782Z,999.00
2022-08-22T10:46:13.852Z,998.98
2022-08-22T10:47:13.736Z,998.94
2022-08-22T10:48:13.735Z,998.91
2022-08-22T10:49:16.454Z,998.90
2022-08-22T10:50:14.687Z,998.87
2022-08-22T10:51:13.685Z,998.89
2022-08-22T10:52:15.499Z,998.85
2022-08-22T10:53:13.657Z,998.88
2022-08-22T10:54:13.646Z,998.87
2022-08-22T10:55:14.636Z,998.89
2022-08-22T10:56:13.620Z,998.94
2022-08-22T10:57:13.627Z,998.89
2022-08-22T10:58:13.607Z,998.90
2022-08-22T10:59:13.577Z,998.91
2022-08-22T11:00:13.623Z,998.91
2022-08-22T11:01:37.213Z,998.92
2022-08-22T11:02:14.556Z,998.90
2022-08-22T11:03:18.679Z,998.87
2022-08-22T11:04:14.508Z,998.89
2022-08-22T11:05:13.503Z,998.89
2022-08-22T11:06:13.538Z,998.91
2022-08-22T11:07:13.498Z,998.90
2022-08-22T11:08:13.459Z,998.88
2022-08-22T11:09:13.459Z,998.91
2022-08-22T11:10:13.439Z,998.93
2022-08-22T11:11:13.429Z,998.92
2022-08-22T11:12:13.429Z,998.88
2022-08-22T11:13:13.399Z,998.87
2022-08-22T11:14:13.449Z,998.89
2022-08-22T11:15:13.404Z,998.89
2022-08-22T11:16:13.360Z,998.85
2022-08-22T11:17:28.799Z,998.87
2022-08-22T11:18:14.330Z,998.88
2022-08-22T11:19:15.311Z,998.86
2022-08-22T11:20:13.310Z,998.88
2022-08-22T11:21:13.301Z,998.82
2022-08-22T11:22:13.303Z,998.84
2022-08-22T11:23:13.285Z,998.85
2022-08-22T11:24:25.032Z,998.82
2022-08-22T11:25:14.274Z,998.79
2022-08-22T11:26:13.249Z,998.84
2022-08-22T11:27:13.251Z,998.86
2022-08-22T11:28:13.212Z,998.85
2022-08-22T11:29:14.419Z,998.82
2022-08-22T11:30:18.500Z,998.75
2022-08-22T11:31:14.180Z,998.78
2022-08-22T11:32:13.173Z,998.77
2022-08-22T11:33:13.754Z,998.80
2022-08-22T11:34:13.133Z,998.77
2022-08-22T11:35:13.124Z,998.76
2022-08-22T11:36:13.113Z,998.75
2022-08-22T11:37:13.124Z,998.71
2022-08-22T11:38:13.084Z,998.72
2022-08-22T11:39:17.894Z,998.68
2022-08-22T11:40:14.070Z,998.71
2022-08-22T11:41:13.075Z,998.71
2022-08-22T11:42:13.213Z,998.70
2022-08-22T11:43:18.403Z,998.70
2022-08-22T11:44:14.006Z,998.69
2022-08-22T11:45:16.006Z,998.73
2022-08-22T11:46:12.976Z,998.73
2022-08-22T11:47:12.988Z,998.67
2022-08-22T11:48:12.958Z,998.71
2022-08-22T11:49:12.953Z,998.69
2022-08-22T11:50:13.794Z,998.67
2022-08-22T11:51:13.654Z,998.69
2022-08-22T11:52:12.918Z,998.72
2022-08-22T11:53:12.897Z,998.69
2022-08-22T11:54:12.877Z,998.66
2022-08-22T11:55:12.868Z,998.65
2022-08-22T11:56:12.848Z,998.66
2022-08-22T11:57:12.858Z,998.67
2022-08-22T11:58:12.830Z,998.66
2022-08-22T11:59:12.819Z,998.65
2022-08-22T12:00:12.799Z,998.62
2022-08-22T12:01:17.212Z,998.57
2022-08-22T12:02:13.827Z,998.61
2022-08-22T12:03:12.767Z,998.57
2022-08-22T12:04:13.063Z,998.60
2022-08-22T12:05:13.705Z,998.63
2022-08-22T12:06:13.719Z,998.62
2022-08-22T12:07:12.730Z,998.61
2022-08-22T12:08:12.700Z,998.56
2022-08-22T12:09:12.682Z,998.56
2022-08-22T12:10:13.444Z,998.57
2022-08-22T12:11:12.670Z,998.55
2022-08-22T12:12:12.660Z,998.54
2022-08-22T12:13:12.639Z,998.55
2022-08-22T12:14:12.621Z,998.51